RYR17CG EGBB-LIPH
Flight info
| Callsign | RYR17CG |
|---|---|
| Flight time | 1h 53m |
| Altitude | 23000 |
| Route | COWLY DCT LINDY DCT EVATA DCT MID L612 BOGNA/N0435F370 DCT XAMAB UL612 RESMI UN491 POGZI DCT GELTA DCT LUVAL DCT SHARA DCT DEVDI DCT RIPUS DCT RESIA/N0337F190 P131 ADOSA |
| Aircraft | B738/M-SDE3FGILRWY/SB1 |
Departure
| Time | 2026-04-24 12:14 |
|---|---|
| Airport | Birmingham Airport (EGBB) |
Arrival
| Time | 2026-04-24 14:07 |
|---|---|
| Airport | Treviso Airport (LIPH) |
| Time | Latitude | Longitude | Altitude | Speed | Heading |
|---|---|---|---|---|---|
| 2026-04-24 11:49 | 52.45435 | -1.73483 | 321 ft | 0 kts | 146° |
| 2026-04-24 12:05 | 52.45448 | -1.73497 | 320 ft | 3 kts | 146° |
| 2026-04-24 12:05 | 52.45465 | -1.73519 | 321 ft | 4 kts | 130° |
| 2026-04-24 12:06 | 52.45477 | -1.73555 | 320 ft | 4 kts | 92° |
| 2026-04-24 12:06 | 52.45472 | -1.73594 | 322 ft | 3 kts | 56° |
| 2026-04-24 12:06 | 52.45480 | -1.73574 | 319 ft | 1 kts | 56° |
| 2026-04-24 12:09 | 52.45494 | -1.73541 | 322 ft | 8 kts | 56° |
| 2026-04-24 12:09 | 52.45539 | -1.73489 | 322 ft | 10 kts | 358° |
| 2026-04-24 12:09 | 52.45600 | -1.73544 | 322 ft | 10 kts | 326° |
| 2026-04-24 12:09 | 52.45677 | -1.73628 | 321 ft | 17 kts | 326° |
| 2026-04-24 12:10 | 52.45753 | -1.73811 | 322 ft | 22 kts | 290° |
| 2026-04-24 12:10 | 52.45688 | -1.74035 | 322 ft | 23 kts | 237° |
| 2026-04-24 12:10 | 52.45603 | -1.74251 | 322 ft | 22 kts | 237° |
| 2026-04-24 12:11 | 52.45547 | -1.74653 | 322 ft | 20 kts | 325° |
| 2026-04-24 12:11 | 52.45671 | -1.74792 | 313 ft | 23 kts | 326° |
| 2026-04-24 12:11 | 52.45808 | -1.74943 | 309 ft | 24 kts | 325° |
| 2026-04-24 12:11 | 52.45940 | -1.75091 | 306 ft | 23 kts | 326° |
| 2026-04-24 12:12 | 52.46069 | -1.75234 | 303 ft | 22 kts | 326° |
| 2026-04-24 12:12 | 52.46212 | -1.75393 | 301 ft | 13 kts | 320° |
| 2026-04-24 12:12 | 52.46210 | -1.75481 | 305 ft | 12 kts | 241° |
| 2026-04-24 12:12 | 52.46163 | -1.75594 | 309 ft | 10 kts | 240° |
| 2026-04-24 12:13 | 52.46150 | -1.75651 | 308 ft | 3 kts | 195° |
| 2026-04-24 12:13 | 52.46144 | -1.75644 | 309 ft | 0 kts | 145° |
| 2026-04-24 12:13 | 52.46127 | -1.75625 | 308 ft | 19 kts | 145° |
| 2026-04-24 12:13 | 52.45819 | -1.75283 | 320 ft | 86 kts | 146° |
| 2026-04-24 12:14 | 52.45160 | -1.74550 | 329 ft | 141 kts | 146° |
| 2026-04-24 12:14 | 52.44257 | -1.73541 | 622 ft | 161 kts | 143° |
| 2026-04-24 12:14 | 52.43349 | -1.72541 | 1392 ft | 157 kts | 143° |
| 2026-04-24 12:14 | 52.42408 | -1.71504 | 1893 ft | 176 kts | 143° |
| 2026-04-24 12:15 | 52.41315 | -1.70300 | 2203 ft | 200 kts | 148° |
| 2026-04-24 12:15 | 52.39949 | -1.69576 | 2618 ft | 212 kts | 165° |
| 2026-04-24 12:15 | 52.38495 | -1.69024 | 3241 ft | 216 kts | 163° |
| 2026-04-24 12:15 | 52.37342 | -1.68374 | 3901 ft | 213 kts | 152° |
| 2026-04-24 12:16 | 52.36249 | -1.67475 | 4524 ft | 214 kts | 151° |
| 2026-04-24 12:16 | 52.34933 | -1.66313 | 5197 ft | 218 kts | 147° |
| 2026-04-24 12:16 | 52.33580 | -1.64907 | 5414 ft | 243 kts | 145° |
| 2026-04-24 12:16 | 52.32106 | -1.63341 | 5724 ft | 260 kts | 146° |
| 2026-04-24 12:17 | 52.30568 | -1.61726 | 6423 ft | 264 kts | 146° |
| 2026-04-24 12:17 | 52.28994 | -1.60129 | 7164 ft | 269 kts | 149° |
| 2026-04-24 12:17 | 52.27344 | -1.58641 | 7848 ft | 273 kts | 150° |
| 2026-04-24 12:17 | 52.25670 | -1.57186 | 8649 ft | 273 kts | 151° |
| 2026-04-24 12:18 | 52.23981 | -1.55723 | 9420 ft | 277 kts | 151° |
| 2026-04-24 12:18 | 52.22270 | -1.54238 | 10190 ft | 280 kts | 151° |
| 2026-04-24 12:18 | 52.20531 | -1.52724 | 10762 ft | 290 kts | 151° |
| 2026-04-24 12:18 | 52.18701 | -1.51125 | 10928 ft | 314 kts | 151° |
| 2026-04-24 12:19 | 52.16725 | -1.49396 | 11300 ft | 328 kts | 151° |
| 2026-04-24 12:19 | 52.14700 | -1.47624 | 12041 ft | 331 kts | 151° |
| 2026-04-24 12:19 | 52.12653 | -1.45833 | 12687 ft | 338 kts | 151° |
| 2026-04-24 12:19 | 52.10562 | -1.44003 | 13384 ft | 343 kts | 151° |
| 2026-04-24 12:20 | 52.08460 | -1.42163 | 14241 ft | 343 kts | 151° |
| 2026-04-24 12:20 | 52.06372 | -1.40337 | 15118 ft | 341 kts | 152° |
| 2026-04-24 12:20 | 52.04266 | -1.38498 | 15812 ft | 346 kts | 152° |
| 2026-04-24 12:20 | 52.02129 | -1.36634 | 16448 ft | 351 kts | 152° |
| 2026-04-24 12:21 | 51.99966 | -1.34749 | 17125 ft | 355 kts | 152° |
| 2026-04-24 12:21 | 51.97784 | -1.32847 | 17894 ft | 357 kts | 152° |
| 2026-04-24 12:21 | 51.95580 | -1.30929 | 18613 ft | 361 kts | 153° |
| 2026-04-24 12:21 | 51.93356 | -1.28996 | 19198 ft | 365 kts | 153° |
| 2026-04-24 12:22 | 51.91106 | -1.27042 | 19799 ft | 369 kts | 153° |
| 2026-04-24 12:22 | 51.88831 | -1.25069 | 20407 ft | 372 kts | 153° |
| 2026-04-24 12:22 | 51.86537 | -1.23081 | 20995 ft | 376 kts | 153° |
| 2026-04-24 12:22 | 51.84221 | -1.21077 | 21587 ft | 379 kts | 153° |
| 2026-04-24 12:23 | 51.81885 | -1.19057 | 22170 ft | 383 kts | 154° |
| 2026-04-24 12:23 | 51.79522 | -1.17018 | 22684 ft | 388 kts | 154° |
| 2026-04-24 12:23 | 51.77104 | -1.14936 | 22928 ft | 400 kts | 155° |
| 2026-04-24 12:23 | 51.74636 | -1.12812 | 23415 ft | 404 kts | 155° |
| 2026-04-24 12:24 | 51.72145 | -1.10669 | 23971 ft | 407 kts | 155° |
| 2026-04-24 12:24 | 51.69635 | -1.08512 | 24402 ft | 411 kts | 155° |
| 2026-04-24 12:24 | 51.67097 | -1.06334 | 24819 ft | 415 kts | 155° |
| 2026-04-24 12:24 | 51.64541 | -1.04144 | 25242 ft | 418 kts | 155° |
| 2026-04-24 12:25 | 51.61962 | -1.01936 | 25654 ft | 422 kts | 155° |
| 2026-04-24 12:25 | 51.59360 | -0.99712 | 26055 ft | 425 kts | 155° |
| 2026-04-24 12:25 | 51.56734 | -0.97470 | 26432 ft | 429 kts | 156° |
| 2026-04-24 12:25 | 51.54119 | -0.95243 | 26737 ft | 434 kts | 156° |
| 2026-04-24 12:26 | 51.51449 | -0.92969 | 27232 ft | 434 kts | 156° |
| 2026-04-24 12:26 | 51.48771 | -0.90690 | 27651 ft | 437 kts | 156° |
| 2026-04-24 12:26 | 51.46082 | -0.88407 | 27987 ft | 441 kts | 156° |
| 2026-04-24 12:26 | 51.43352 | -0.86093 | 28327 ft | 445 kts | 156° |
| 2026-04-24 12:27 | 51.40613 | -0.83774 | 28686 ft | 448 kts | 156° |
| 2026-04-24 12:27 | 51.37844 | -0.81433 | 29048 ft | 450 kts | 156° |
| 2026-04-24 12:27 | 51.35065 | -0.79086 | 29402 ft | 453 kts | 156° |
| 2026-04-24 12:27 | 51.32264 | -0.76724 | 29721 ft | 456 kts | 156° |
| 2026-04-24 12:28 | 51.29446 | -0.74352 | 30032 ft | 460 kts | 156° |
| 2026-04-24 12:28 | 51.26609 | -0.71965 | 30365 ft | 462 kts | 156° |
| 2026-04-24 12:28 | 51.23764 | -0.69574 | 30725 ft | 462 kts | 156° |
| 2026-04-24 12:28 | 51.20913 | -0.67181 | 31091 ft | 462 kts | 156° |
| 2026-04-24 12:29 | 51.18066 | -0.64796 | 31474 ft | 462 kts | 156° |
| 2026-04-24 12:29 | 51.15228 | -0.62421 | 31905 ft | 460 kts | 156° |
| 2026-04-24 12:29 | 51.12403 | -0.60061 | 32343 ft | 457 kts | 156° |
| 2026-04-24 12:29 | 51.09589 | -0.57713 | 32753 ft | 456 kts | 156° |
| 2026-04-24 12:30 | 51.06785 | -0.55378 | 33140 ft | 455 kts | 156° |
| 2026-04-24 12:30 | 51.03984 | -0.53049 | 33538 ft | 454 kts | 156° |
| 2026-04-24 12:30 | 51.01192 | -0.50731 | 33933 ft | 452 kts | 156° |
| 2026-04-24 12:30 | 50.98410 | -0.48424 | 34313 ft | 451 kts | 156° |
| 2026-04-24 12:31 | 50.95634 | -0.46125 | 34623 ft | 450 kts | 156° |
| 2026-04-24 12:31 | 50.92857 | -0.43828 | 34931 ft | 449 kts | 155° |
| 2026-04-24 12:31 | 50.90092 | -0.41545 | 35254 ft | 447 kts | 155° |
| 2026-04-24 12:31 | 50.87336 | -0.39271 | 35572 ft | 446 kts | 155° |
| 2026-04-24 12:32 | 50.84591 | -0.37009 | 35924 ft | 444 kts | 155° |
| 2026-04-24 12:32 | 50.81860 | -0.34762 | 36251 ft | 442 kts | 155° |
| 2026-04-24 12:32 | 50.79132 | -0.32521 | 36512 ft | 442 kts | 155° |
| 2026-04-24 12:32 | 50.76401 | -0.30279 | 36769 ft | 442 kts | 155° |
| 2026-04-24 12:33 | 50.73676 | -0.28045 | 37055 ft | 441 kts | 155° |
| 2026-04-24 12:33 | 50.70958 | -0.25821 | 37315 ft | 440 kts | 155° |
| 2026-04-24 12:33 | 50.68286 | -0.23401 | 37289 ft | 446 kts | 150° |
| 2026-04-24 12:34 | 50.63113 | -0.17952 | 37287 ft | 447 kts | 148° |
| 2026-04-24 12:34 | 50.58024 | -0.12476 | 37286 ft | 440 kts | 148° |
| 2026-04-24 12:35 | 50.52953 | -0.07117 | 37299 ft | 438 kts | 149° |
| 2026-04-24 12:35 | 50.47879 | -0.01819 | 37295 ft | 438 kts | 149° |
| 2026-04-24 12:36 | 50.42794 | 0.03465 | 37298 ft | 438 kts | 149° |
| 2026-04-24 12:36 | 50.37715 | 0.08734 | 37295 ft | 438 kts | 149° |
| 2026-04-24 12:37 | 50.32628 | 0.13998 | 37296 ft | 439 kts | 149° |
| 2026-04-24 12:37 | 50.27528 | 0.19266 | 37294 ft | 440 kts | 149° |
| 2026-04-24 12:38 | 50.22416 | 0.24527 | 37294 ft | 441 kts | 149° |
| 2026-04-24 12:38 | 50.17289 | 0.29792 | 37287 ft | 441 kts | 149° |
| 2026-04-24 12:39 | 50.07021 | 0.40315 | 37289 ft | 442 kts | 149° |
| 2026-04-24 12:40 | 50.01876 | 0.45572 | 37279 ft | 443 kts | 150° |
| 2026-04-24 12:40 | 49.96726 | 0.50814 | 37260 ft | 442 kts | 150° |
| 2026-04-24 12:41 | 49.91583 | 0.56038 | 37271 ft | 441 kts | 149° |
| 2026-04-24 12:41 | 49.86485 | 0.61203 | 37263 ft | 440 kts | 149° |
| 2026-04-24 12:42 | 49.81587 | 0.66915 | 37274 ft | 441 kts | 142° |
| 2026-04-24 12:42 | 49.76870 | 0.72988 | 37258 ft | 440 kts | 142° |
| 2026-04-24 12:43 | 49.72152 | 0.79012 | 37258 ft | 439 kts | 143° |
| 2026-04-24 12:43 | 49.67416 | 0.84965 | 37252 ft | 438 kts | 143° |
| 2026-04-24 12:44 | 49.62675 | 0.90882 | 37249 ft | 438 kts | 143° |
| 2026-04-24 12:44 | 49.57940 | 0.96776 | 37240 ft | 437 kts | 142° |
| 2026-04-24 12:45 | 49.53208 | 1.02652 | 37240 ft | 437 kts | 142° |
| 2026-04-24 12:45 | 49.48478 | 1.08513 | 37240 ft | 437 kts | 142° |
| 2026-04-24 12:46 | 49.43746 | 1.14365 | 37245 ft | 437 kts | 142° |
| 2026-04-24 12:46 | 49.39005 | 1.20207 | 37245 ft | 437 kts | 142° |
| 2026-04-24 12:47 | 49.34263 | 1.26036 | 37231 ft | 437 kts | 142° |
| 2026-04-24 12:47 | 49.29517 | 1.31859 | 37242 ft | 437 kts | 142° |
| 2026-04-24 12:48 | 49.24760 | 1.37682 | 37229 ft | 438 kts | 142° |
| 2026-04-24 12:48 | 49.19997 | 1.43499 | 37238 ft | 438 kts | 142° |
| 2026-04-24 12:49 | 49.15221 | 1.49317 | 37219 ft | 440 kts | 142° |
| 2026-04-24 12:49 | 49.11243 | 1.54151 | 37223 ft | 440 kts | 142° |
| 2026-04-24 12:50 | 49.07112 | 1.60971 | 37241 ft | 441 kts | 119° |
| 2026-04-24 12:50 | 49.05840 | 1.65226 | 37223 ft | 442 kts | 107° |
| 2026-04-24 12:50 | 49.04977 | 1.69711 | 37241 ft | 441 kts | 105° |
| 2026-04-24 12:51 | 49.03298 | 1.78714 | 37226 ft | 442 kts | 107° |
| 2026-04-24 12:51 | 49.01587 | 1.87690 | 37213 ft | 441 kts | 107° |
| 2026-04-24 12:52 | 48.99844 | 1.96650 | 37203 ft | 440 kts | 107° |
| 2026-04-24 12:52 | 48.97804 | 2.07011 | 37211 ft | 439 kts | 108° |
| 2026-04-24 12:53 | 48.96331 | 2.14455 | 37205 ft | 438 kts | 108° |
| 2026-04-24 12:53 | 48.94574 | 2.23301 | 37217 ft | 436 kts | 108° |
| 2026-04-24 12:54 | 48.92815 | 2.32117 | 37204 ft | 435 kts | 109° |
| 2026-04-24 12:54 | 48.91054 | 2.40902 | 37210 ft | 433 kts | 109° |
| 2026-04-24 12:55 | 48.89293 | 2.49650 | 37217 ft | 432 kts | 109° |
| 2026-04-24 12:55 | 48.87531 | 2.58362 | 37209 ft | 431 kts | 109° |
| 2026-04-24 12:56 | 48.85765 | 2.67060 | 37239 ft | 430 kts | 109° |
| 2026-04-24 12:56 | 48.83995 | 2.75734 | 37230 ft | 430 kts | 109° |
| 2026-04-24 12:57 | 48.82220 | 2.84398 | 37217 ft | 430 kts | 109° |
| 2026-04-24 12:57 | 48.80439 | 2.93050 | 37227 ft | 430 kts | 109° |
| 2026-04-24 12:58 | 48.78664 | 3.01637 | 37227 ft | 430 kts | 109° |
| 2026-04-24 12:58 | 48.76869 | 3.10289 | 37229 ft | 430 kts | 110° |
| 2026-04-24 12:59 | 48.75067 | 3.18930 | 37227 ft | 430 kts | 110° |
| 2026-04-24 12:59 | 48.73257 | 3.27579 | 37227 ft | 431 kts | 110° |
| 2026-04-24 13:00 | 48.71440 | 3.36217 | 37220 ft | 431 kts | 110° |
| 2026-04-24 13:00 | 48.69615 | 3.44859 | 37234 ft | 431 kts | 110° |
| 2026-04-24 13:01 | 48.67782 | 3.53502 | 37224 ft | 431 kts | 110° |
| 2026-04-24 13:01 | 48.65944 | 3.62134 | 37220 ft | 431 kts | 110° |
| 2026-04-24 13:02 | 48.64098 | 3.70768 | 37224 ft | 432 kts | 110° |
| 2026-04-24 13:02 | 48.62243 | 3.79404 | 37223 ft | 432 kts | 111° |
| 2026-04-24 13:03 | 48.60382 | 3.88033 | 37225 ft | 432 kts | 111° |
| 2026-04-24 13:03 | 48.58514 | 3.96657 | 37226 ft | 432 kts | 111° |
| 2026-04-24 13:04 | 48.56639 | 4.05278 | 37204 ft | 432 kts | 111° |
| 2026-04-24 13:04 | 48.54759 | 4.13885 | 37211 ft | 432 kts | 111° |
| 2026-04-24 13:05 | 48.52875 | 4.22478 | 37203 ft | 431 kts | 111° |
| 2026-04-24 13:05 | 48.50988 | 4.31045 | 37212 ft | 430 kts | 111° |
| 2026-04-24 13:06 | 48.49098 | 4.39594 | 37215 ft | 429 kts | 111° |
| 2026-04-24 13:06 | 48.47206 | 4.48117 | 37206 ft | 428 kts | 111° |
| 2026-04-24 13:07 | 48.45311 | 4.56614 | 37207 ft | 428 kts | 111° |
| 2026-04-24 13:07 | 48.43411 | 4.65103 | 37200 ft | 427 kts | 111° |
| 2026-04-24 13:08 | 48.41508 | 4.73572 | 37197 ft | 427 kts | 111° |
| 2026-04-24 13:08 | 48.39601 | 4.82021 | 37203 ft | 426 kts | 112° |
| 2026-04-24 13:09 | 48.36728 | 4.94690 | 37203 ft | 426 kts | 112° |
| 2026-04-24 13:09 | 48.34806 | 5.03122 | 37194 ft | 427 kts | 112° |
| 2026-04-24 13:10 | 48.32875 | 5.11565 | 37199 ft | 427 kts | 112° |
| 2026-04-24 13:10 | 48.30947 | 5.19957 | 37189 ft | 428 kts | 112° |
| 2026-04-24 13:11 | 48.28987 | 5.28457 | 37202 ft | 428 kts | 112° |
| 2026-04-24 13:11 | 48.27032 | 5.36901 | 37196 ft | 429 kts | 112° |
| 2026-04-24 13:12 | 48.25081 | 5.45293 | 37189 ft | 429 kts | 112° |
| 2026-04-24 13:12 | 48.23112 | 5.53735 | 37186 ft | 429 kts | 112° |
| 2026-04-24 13:13 | 48.21136 | 5.62170 | 37182 ft | 429 kts | 112° |
| 2026-04-24 13:13 | 48.19154 | 5.70598 | 37198 ft | 429 kts | 112° |
| 2026-04-24 13:14 | 48.17164 | 5.79026 | 37196 ft | 429 kts | 112° |
| 2026-04-24 13:14 | 48.15169 | 5.87445 | 37203 ft | 429 kts | 112° |
| 2026-04-24 13:15 | 48.13168 | 5.95857 | 37202 ft | 429 kts | 112° |
| 2026-04-24 13:15 | 48.11157 | 6.04275 | 37197 ft | 429 kts | 112° |
| 2026-04-24 13:16 | 48.09142 | 6.12684 | 37197 ft | 430 kts | 112° |
| 2026-04-24 13:16 | 48.07118 | 6.21092 | 37193 ft | 430 kts | 112° |
| 2026-04-24 13:17 | 48.05087 | 6.29498 | 37196 ft | 430 kts | 112° |
| 2026-04-24 13:17 | 48.03049 | 6.37902 | 37181 ft | 431 kts | 112° |
| 2026-04-24 13:18 | 48.01017 | 6.46253 | 37182 ft | 431 kts | 112° |
| 2026-04-24 13:18 | 47.98962 | 6.54665 | 37179 ft | 431 kts | 112° |
| 2026-04-24 13:19 | 47.96901 | 6.63069 | 37177 ft | 431 kts | 112° |
| 2026-04-24 13:19 | 47.94831 | 6.71475 | 37176 ft | 432 kts | 112° |
| 2026-04-24 13:20 | 47.92756 | 6.79876 | 37169 ft | 431 kts | 112° |
| 2026-04-24 13:20 | 47.90675 | 6.88264 | 37179 ft | 432 kts | 112° |
| 2026-04-24 13:21 | 47.88587 | 6.96650 | 37184 ft | 432 kts | 112° |
| 2026-04-24 13:21 | 47.86490 | 7.05044 | 37185 ft | 432 kts | 112° |
| 2026-04-24 13:22 | 47.84383 | 7.13443 | 37178 ft | 433 kts | 112° |
| 2026-04-24 13:22 | 47.82270 | 7.21837 | 37182 ft | 433 kts | 112° |
| 2026-04-24 13:23 | 47.80152 | 7.30224 | 37181 ft | 433 kts | 112° |
| 2026-04-24 13:23 | 47.78026 | 7.38608 | 37185 ft | 433 kts | 112° |
| 2026-04-24 13:24 | 47.75898 | 7.46977 | 37181 ft | 433 kts | 112° |
| 2026-04-24 13:24 | 47.73616 | 7.55236 | 37175 ft | 431 kts | 120° |
| 2026-04-24 13:25 | 47.70205 | 7.62498 | 37185 ft | 429 kts | 128° |
| 2026-04-24 13:25 | 47.66617 | 7.69566 | 37184 ft | 429 kts | 128° |
| 2026-04-24 13:26 | 47.63045 | 7.76658 | 37184 ft | 429 kts | 127° |
| 2026-04-24 13:26 | 47.59490 | 7.83764 | 37179 ft | 429 kts | 127° |
| 2026-04-24 13:27 | 47.55937 | 7.90867 | 37177 ft | 429 kts | 127° |
| 2026-04-24 13:27 | 47.52402 | 7.97916 | 37168 ft | 429 kts | 127° |
| 2026-04-24 13:28 | 47.48839 | 8.05002 | 37171 ft | 429 kts | 127° |
| 2026-04-24 13:28 | 47.45275 | 8.12072 | 37168 ft | 429 kts | 127° |
| 2026-04-24 13:29 | 47.41705 | 8.19135 | 37172 ft | 429 kts | 127° |
| 2026-04-24 13:29 | 47.38131 | 8.26188 | 37166 ft | 429 kts | 127° |
| 2026-04-24 13:30 | 47.34559 | 8.33218 | 37168 ft | 428 kts | 127° |
| 2026-04-24 13:30 | 47.30986 | 8.40234 | 37173 ft | 428 kts | 127° |
| 2026-04-24 13:31 | 47.27412 | 8.47237 | 37179 ft | 427 kts | 127° |
| 2026-04-24 13:31 | 47.23860 | 8.54253 | 37180 ft | 427 kts | 126° |
| 2026-04-24 13:32 | 47.20370 | 8.61329 | 37178 ft | 427 kts | 126° |
| 2026-04-24 13:32 | 47.16883 | 8.68403 | 37178 ft | 427 kts | 126° |
| 2026-04-24 13:33 | 47.13387 | 8.75456 | 37175 ft | 427 kts | 125° |
| 2026-04-24 13:33 | 47.09877 | 8.82508 | 37166 ft | 427 kts | 125° |
| 2026-04-24 13:34 | 47.06366 | 8.89539 | 37157 ft | 427 kts | 126° |
| 2026-04-24 13:34 | 47.02846 | 8.96572 | 37157 ft | 427 kts | 125° |
| 2026-04-24 13:35 | 46.99327 | 9.03584 | 37174 ft | 427 kts | 125° |
| 2026-04-24 13:35 | 46.95802 | 9.10590 | 37158 ft | 428 kts | 125° |
| 2026-04-24 13:36 | 46.92866 | 9.16412 | 37146 ft | 428 kts | 125° |
| 2026-04-24 13:36 | 46.89324 | 9.23423 | 37149 ft | 429 kts | 125° |
| 2026-04-24 13:37 | 46.85765 | 9.30447 | 36997 ft | 431 kts | 125° |
| 2026-04-24 13:37 | 46.83409 | 9.35086 | 36596 ft | 425 kts | 126° |
| 2026-04-24 13:37 | 46.82225 | 9.37414 | 36321 ft | 422 kts | 125° |
| 2026-04-24 13:38 | 46.80485 | 9.40832 | 35988 ft | 417 kts | 125° |
| 2026-04-24 13:38 | 46.78758 | 9.44220 | 35590 ft | 415 kts | 125° |
| 2026-04-24 13:38 | 46.77041 | 9.47585 | 35218 ft | 412 kts | 125° |
| 2026-04-24 13:38 | 46.75341 | 9.50914 | 34837 ft | 409 kts | 125° |
| 2026-04-24 13:39 | 46.73646 | 9.54228 | 34466 ft | 406 kts | 125° |
| 2026-04-24 13:39 | 46.71962 | 9.57518 | 34090 ft | 404 kts | 125° |
| 2026-04-24 13:39 | 46.70286 | 9.60786 | 33668 ft | 402 kts | 125° |
| 2026-04-24 13:39 | 46.68620 | 9.64034 | 33278 ft | 399 kts | 125° |
| 2026-04-24 13:40 | 46.66965 | 9.67253 | 32909 ft | 396 kts | 125° |
| 2026-04-24 13:40 | 46.65341 | 9.70410 | 32549 ft | 393 kts | 125° |
| 2026-04-24 13:40 | 46.63709 | 9.73582 | 32184 ft | 390 kts | 124° |
| 2026-04-24 13:40 | 46.62086 | 9.76730 | 31825 ft | 387 kts | 124° |
| 2026-04-24 13:41 | 46.60475 | 9.79852 | 31477 ft | 385 kts | 124° |
| 2026-04-24 13:41 | 46.58873 | 9.82951 | 31121 ft | 382 kts | 124° |
| 2026-04-24 13:41 | 46.57282 | 9.86027 | 30786 ft | 380 kts | 124° |
| 2026-04-24 13:41 | 46.55701 | 9.89081 | 30418 ft | 377 kts | 124° |
| 2026-04-24 13:42 | 46.54128 | 9.92117 | 29922 ft | 377 kts | 124° |
| 2026-04-24 13:42 | 46.52515 | 9.95231 | 29329 ft | 380 kts | 124° |
| 2026-04-24 13:42 | 46.50948 | 9.98249 | 28850 ft | 379 kts | 124° |
| 2026-04-24 13:42 | 46.49364 | 10.01291 | 28466 ft | 376 kts | 124° |
| 2026-04-24 13:43 | 46.47743 | 10.04266 | 28050 ft | 375 kts | 129° |
| 2026-04-24 13:43 | 46.45814 | 10.06898 | 27341 ft | 384 kts | 137° |
| 2026-04-24 13:43 | 46.43747 | 10.09352 | 26885 ft | 384 kts | 138° |
| 2026-04-24 13:43 | 46.41677 | 10.11772 | 26498 ft | 381 kts | 137° |
| 2026-04-24 13:44 | 46.39625 | 10.14177 | 26113 ft | 378 kts | 137° |
| 2026-04-24 13:44 | 46.37590 | 10.16579 | 25727 ft | 376 kts | 137° |
| 2026-04-24 13:44 | 46.35577 | 10.18969 | 25360 ft | 373 kts | 137° |
| 2026-04-24 13:44 | 46.33580 | 10.21349 | 24997 ft | 371 kts | 137° |
| 2026-04-24 13:45 | 46.31598 | 10.23716 | 24645 ft | 368 kts | 137° |
| 2026-04-24 13:45 | 46.29630 | 10.26066 | 24282 ft | 366 kts | 137° |
| 2026-04-24 13:45 | 46.27672 | 10.28402 | 23918 ft | 364 kts | 137° |
| 2026-04-24 13:45 | 46.25721 | 10.30728 | 23521 ft | 362 kts | 137° |
| 2026-04-24 13:46 | 46.23784 | 10.33036 | 23129 ft | 359 kts | 137° |
| 2026-04-24 13:46 | 46.21863 | 10.35322 | 22769 ft | 357 kts | 137° |
| 2026-04-24 13:46 | 46.19957 | 10.37589 | 22381 ft | 354 kts | 137° |
| 2026-04-24 13:46 | 46.18068 | 10.39831 | 22067 ft | 349 kts | 137° |
| 2026-04-24 13:47 | 46.16199 | 10.42046 | 21718 ft | 346 kts | 137° |
| 2026-04-24 13:47 | 46.14346 | 10.44244 | 21378 ft | 344 kts | 137° |
| 2026-04-24 13:47 | 46.12508 | 10.46425 | 21044 ft | 341 kts | 137° |
| 2026-04-24 13:47 | 46.10681 | 10.48590 | 20711 ft | 339 kts | 138° |
| 2026-04-24 13:48 | 46.08866 | 10.50740 | 20384 ft | 337 kts | 138° |
| 2026-04-24 13:48 | 46.07063 | 10.52876 | 20041 ft | 335 kts | 137° |
| 2026-04-24 13:48 | 46.05266 | 10.55001 | 19718 ft | 333 kts | 137° |
| 2026-04-24 13:48 | 46.03480 | 10.57113 | 19378 ft | 331 kts | 137° |
| 2026-04-24 13:49 | 46.01704 | 10.59211 | 19078 ft | 330 kts | 138° |
| 2026-04-24 13:49 | 45.99931 | 10.61304 | 18748 ft | 329 kts | 137° |
| 2026-04-24 13:49 | 45.98165 | 10.63388 | 18422 ft | 329 kts | 137° |
| 2026-04-24 13:49 | 45.96401 | 10.65465 | 18046 ft | 327 kts | 137° |
| 2026-04-24 13:50 | 45.94649 | 10.67526 | 17712 ft | 325 kts | 138° |
| 2026-04-24 13:50 | 45.92904 | 10.69577 | 17374 ft | 323 kts | 138° |
| 2026-04-24 13:50 | 45.91165 | 10.71609 | 17023 ft | 322 kts | 139° |
| 2026-04-24 13:50 | 45.89436 | 10.73624 | 16700 ft | 319 kts | 139° |
| 2026-04-24 13:51 | 45.87718 | 10.75627 | 16348 ft | 316 kts | 139° |
| 2026-04-24 13:51 | 45.86017 | 10.77608 | 16064 ft | 314 kts | 139° |
| 2026-04-24 13:51 | 45.84324 | 10.79577 | 15757 ft | 313 kts | 139° |
| 2026-04-24 13:51 | 45.82656 | 10.81572 | 15421 ft | 311 kts | 133° |
| 2026-04-24 13:52 | 45.81412 | 10.83998 | 15123 ft | 304 kts | 114° |
| 2026-04-24 13:52 | 45.80551 | 10.86742 | 14841 ft | 301 kts | 110° |
| 2026-04-24 13:52 | 45.79750 | 10.89546 | 14528 ft | 299 kts | 109° |
| 2026-04-24 13:52 | 45.78973 | 10.92312 | 14237 ft | 299 kts | 109° |
| 2026-04-24 13:53 | 45.78197 | 10.95070 | 13931 ft | 299 kts | 109° |
| 2026-04-24 13:53 | 45.77415 | 10.97831 | 13589 ft | 299 kts | 109° |
| 2026-04-24 13:53 | 45.76629 | 11.00585 | 13271 ft | 299 kts | 109° |
| 2026-04-24 13:53 | 45.75840 | 11.03333 | 12944 ft | 298 kts | 110° |
| 2026-04-24 13:54 | 45.75050 | 11.06071 | 12646 ft | 298 kts | 110° |
| 2026-04-24 13:54 | 45.74259 | 11.08806 | 12315 ft | 297 kts | 110° |
| 2026-04-24 13:54 | 45.73480 | 11.11487 | 12038 ft | 294 kts | 110° |
| 2026-04-24 13:54 | 45.72686 | 11.14215 | 11748 ft | 294 kts | 109° |
| 2026-04-24 13:55 | 45.71898 | 11.16926 | 11441 ft | 295 kts | 109° |
| 2026-04-24 13:55 | 45.71123 | 11.19592 | 11136 ft | 293 kts | 110° |
| 2026-04-24 13:55 | 45.70330 | 11.22308 | 10847 ft | 292 kts | 109° |
| 2026-04-24 13:55 | 45.69548 | 11.24985 | 10559 ft | 291 kts | 110° |
| 2026-04-24 13:56 | 45.68767 | 11.27654 | 10254 ft | 290 kts | 109° |
| 2026-04-24 13:56 | 45.68007 | 11.30247 | 10118 ft | 283 kts | 109° |
| 2026-04-24 13:56 | 45.67251 | 11.32824 | 9846 ft | 281 kts | 110° |
| 2026-04-24 13:56 | 45.66495 | 11.35403 | 9557 ft | 280 kts | 110° |
| 2026-04-24 13:57 | 45.65741 | 11.37971 | 9269 ft | 280 kts | 110° |
| 2026-04-24 13:57 | 45.65017 | 11.40550 | 8977 ft | 277 kts | 104° |
| 2026-04-24 13:57 | 45.64562 | 11.43168 | 8829 ft | 265 kts | 98° |
| 2026-04-24 13:57 | 45.64211 | 11.45687 | 8695 ft | 254 kts | 98° |
| 2026-04-24 13:58 | 45.63877 | 11.48149 | 8400 ft | 251 kts | 98° |
| 2026-04-24 13:58 | 45.63544 | 11.50531 | 8321 ft | 239 kts | 98° |
| 2026-04-24 13:58 | 45.63216 | 11.52836 | 8068 ft | 235 kts | 98° |
| 2026-04-24 13:58 | 45.62886 | 11.55119 | 7745 ft | 235 kts | 100° |
| 2026-04-24 13:59 | 45.62550 | 11.57400 | 7450 ft | 235 kts | 99° |
| 2026-04-24 13:59 | 45.62211 | 11.59685 | 7135 ft | 235 kts | 100° |
| 2026-04-24 13:59 | 45.61868 | 11.61974 | 6794 ft | 237 kts | 100° |
| 2026-04-24 13:59 | 45.61524 | 11.64262 | 6550 ft | 234 kts | 101° |
| 2026-04-24 14:00 | 45.61180 | 11.66535 | 6251 ft | 233 kts | 102° |
| 2026-04-24 14:00 | 45.60838 | 11.68783 | 5981 ft | 233 kts | 102° |
| 2026-04-24 14:00 | 45.60495 | 11.71038 | 5772 ft | 232 kts | 102° |
| 2026-04-24 14:00 | 45.60151 | 11.73295 | 5536 ft | 232 kts | 102° |
| 2026-04-24 14:01 | 45.59809 | 11.75526 | 5386 ft | 229 kts | 102° |
| 2026-04-24 14:01 | 45.59473 | 11.77725 | 5252 ft | 225 kts | 102° |
| 2026-04-24 14:01 | 45.59139 | 11.79901 | 5037 ft | 225 kts | 102° |
| 2026-04-24 14:01 | 45.58807 | 11.82068 | 4859 ft | 223 kts | 102° |
| 2026-04-24 14:02 | 45.58473 | 11.84231 | 4660 ft | 222 kts | 102° |
| 2026-04-24 14:02 | 45.58147 | 11.86341 | 4521 ft | 213 kts | 102° |
| 2026-04-24 14:02 | 45.57834 | 11.88368 | 4337 ft | 208 kts | 103° |
| 2026-04-24 14:02 | 45.57532 | 11.90343 | 4221 ft | 199 kts | 101° |
| 2026-04-24 14:03 | 45.57655 | 11.92318 | 3849 ft | 203 kts | 68° |
| 2026-04-24 14:03 | 45.58176 | 11.94157 | 3572 ft | 200 kts | 69° |
| 2026-04-24 14:03 | 45.58679 | 11.95993 | 3302 ft | 197 kts | 70° |
| 2026-04-24 14:03 | 45.59161 | 11.97814 | 3044 ft | 195 kts | 71° |
| 2026-04-24 14:04 | 45.59635 | 11.99627 | 2787 ft | 194 kts | 71° |
| 2026-04-24 14:04 | 45.60111 | 12.01437 | 2529 ft | 195 kts | 71° |
| 2026-04-24 14:04 | 45.60587 | 12.03243 | 2267 ft | 195 kts | 70° |
| 2026-04-24 14:04 | 45.61060 | 12.05046 | 2005 ft | 192 kts | 71° |
| 2026-04-24 14:05 | 45.61527 | 12.06817 | 1750 ft | 189 kts | 71° |
| 2026-04-24 14:05 | 45.61984 | 12.08555 | 1499 ft | 184 kts | 71° |
| 2026-04-24 14:05 | 45.62422 | 12.10219 | 1284 ft | 172 kts | 70° |
| 2026-04-24 14:05 | 45.62830 | 12.11764 | 1050 ft | 158 kts | 70° |
| 2026-04-24 14:06 | 45.63216 | 12.13233 | 828 ft | 159 kts | 71° |
| 2026-04-24 14:06 | 45.63605 | 12.14702 | 566 ft | 156 kts | 71° |
| 2026-04-24 14:06 | 45.63986 | 12.16122 | 374 ft | 152 kts | 72° |
| 2026-04-24 14:06 | 45.64354 | 12.17525 | 192 ft | 149 kts | 72° |
| 2026-04-24 14:07 | 45.64713 | 12.18890 | 65 ft | 139 kts | 69° |
| 2026-04-24 14:07 | 45.64981 | 12.19897 | 58 ft | 77 kts | 69° |
| 2026-04-24 14:07 | 45.65095 | 12.20188 | 56 ft | 20 kts | 34° |
| 2026-04-24 14:07 | 45.65204 | 12.20270 | 60 ft | 15 kts | 24° |
| 2026-04-24 14:08 | 45.65257 | 12.20306 | 62 ft | 7 kts | 27° |
| 2026-04-24 14:08 | 45.65292 | 12.20355 | 56 ft | 7 kts | 55° |
| 2026-04-24 14:08 | 45.65312 | 12.20418 | 58 ft | 7 kts | 69° |
| 2026-04-24 14:08 | 45.65329 | 12.20482 | 60 ft | 7 kts | 69° |
| 2026-04-24 14:09 | 45.65346 | 12.20546 | 57 ft | 7 kts | 69° |
| 2026-04-24 14:09 | 45.65359 | 12.20598 | 53 ft | 2 kts | 69° |
| 2026-04-24 14:09 | 45.65368 | 12.20614 | 56 ft | 2 kts | 34° |
| 2026-04-24 14:09 | 45.65392 | 12.20611 | 61 ft | 6 kts | 343° |
| 2026-04-24 14:10 | 45.65417 | 12.20598 | 59 ft | 2 kts | 340° |
| 2026-04-24 14:10 | 45.65423 | 12.20595 | 59 ft | 0 kts | 340° |